Time;durP1;ratioP1;P1;durP2;ratioP2;P2;SDS_P1;SDS_P2;PMS_P1;PMS_P2;Temp;Humidity;BMP_temperature;BMP_pressure;BME280_temperature;BME280_humidity;BME280_pressure;Samples;Min_cycle;Max_cycle;Signal;HPM_P1;HPM_P2
2023/05/07 00:00:07;;;;;;;15.27;13.68;;;;;;;15.63;88.60;100301.88;5052795;28;20053;-60
2023/05/07 00:02:35;;;;;;;13.07;11.68;;;;;;;15.63;87.63;100303.88;5052799;28;20056;-61
2023/05/07 00:05:03;;;;;;;13.48;12.10;;;;;;;15.59;87.99;100306.56;5052792;28;20500;-59
2023/05/07 00:07:30;;;;;;;13.20;10.80;;;;;;;15.50;87.45;100314.28;5052774;28;20064;-59
2023/05/07 00:09:59;;;;;;;10.95;9.85;;;;;;;15.56;88.29;100309.22;5052262;28;20422;-60
2023/05/07 00:12:26;;;;;;;11.13;9.88;;;;;;;15.56;88.74;100317.66;5052808;28;20048;-59
2023/05/07 00:14:53;;;;;;;10.40;9.45;;;;;;;15.54;87.24;100314.38;5052253;28;20391;-59
2023/05/07 00:17:20;;;;;;;11.15;9.63;;;;;;;15.50;87.88;100310.66;5052861;28;20068;-59
2023/05/07 00:19:48;;;;;;;11.90;10.30;;;;;;;15.49;88.78;100306.22;5052530;28;20474;-60
2023/05/07 00:22:16;;;;;;;16.38;14.32;;;;;;;15.49;88.65;100312.63;5052487;28;20045;-59
2023/05/07 00:24:43;;;;;;;16.80;15.02;;;;;;;15.49;88.61;100314.63;5052632;28;20053;-59
2023/05/07 00:27:11;;;;;;;14.25;12.77;;;;;;;15.51;87.54;100323.53;5052458;28;20478;-60
2023/05/07 00:29:39;;;;;;;12.60;11.33;;;;;;;15.53;88.43;100318.38;5050051;28;20048;-58
2023/05/07 00:32:06;;;;;;;14.00;12.60;;;;;;;15.55;88.46;100316.03;5036794;28;20057;-59
2023/05/07 00:34:37;;;;;;;12.57;11.32;;;;;;;15.55;88.45;100319.66;5032889;28;20086;-58
2023/05/07 00:37:04;;;;;;;13.75;11.70;;;;;;;15.57;88.33;100319.31;5032509;28;20057;-60
2023/05/07 00:39:31;;;;;;;14.73;11.63;;;;;;;15.59;88.23;100316.97;5036722;28;20060;-59
2023/05/07 00:41:59;;;;;;;16.38;14.75;;;;;;;15.60;88.63;100308.19;5036586;28;20056;-60
2023/05/07 00:44:28;;;;;;;11.77;10.30;;;;;;;15.65;88.41;100312.75;5036873;28;20057;-59
2023/05/07 00:46:55;;;;;;;11.98;10.75;;;;;;;15.65;88.50;100297.91;5036688;28;20486;-59
2023/05/07 00:49:23;;;;;;;17.27;15.63;;;;;;;15.63;88.64;100304.69;5036440;28;20057;-59
2023/05/07 00:51:51;;;;;;;15.77;13.90;;;;;;;15.66;88.08;100310.75;5036436;28;20414;-60
2023/05/07 00:54:19;;;;;;;17.00;15.38;;;;;;;15.66;87.63;100305.16;5036628;28;20053;-60
2023/05/07 00:56:47;;;;;;;12.60;11.32;;;;;;;15.71;87.89;100302.91;5036321;28;20054;-59
2023/05/07 00:59:14;;;;;;;13.60;12.18;;;;;;;15.70;88.47;100304.06;5036300;28;20065;-59
2023/05/07 01:01:43;;;;;;;15.82;14.35;;;;;;;15.69;88.61;100304.44;5036133;28;20053;-59
2023/05/07 01:04:10;;;;;;;16.07;14.60;;;;;;;15.69;88.13;100305.25;5054118;28;20084;-59
2023/05/07 01:06:38;;;;;;;12.30;10.98;;;;;;;15.70;87.81;100297.66;5055671;28;20053;-59
2023/05/07 01:09:05;;;;;;;13.90;12.63;;;;;;;15.73;87.93;100309.03;5055962;28;20052;-59
2023/05/07 01:11:33;;;;;;;12.18;11.07;;;;;;;15.65;88.31;100301.53;5055934;28;20429;-59
2023/05/07 01:14:01;;;;;;;14.05;12.48;;;;;;;15.65;87.54;100301.53;5055573;28;20057;-59
2023/05/07 01:16:28;;;;;;;10.40;9.32;;;;;;;15.66;88.15;100291.91;5055771;28;20423;-59
2023/05/07 01:18:57;;;;;;;13.35;12.13;;;;;;;15.69;88.52;100287.59;5055901;28;20486;-59
2023/05/07 01:21:26;;;;;;;11.77;10.57;;;;;;;15.68;88.48;100291.56;5055559;28;20064;-59
2023/05/07 01:23:55;;;;;;;15.50;11.25;;;;;;;15.69;87.99;100288.41;5055467;28;20059;-59
2023/05/07 01:26:23;;;;;;;11.23;9.82;;;;;;;15.66;87.81;100282.69;5055699;28;20056;-59
2023/05/07 01:28:51;;;;;;;12.63;11.18;;;;;;;15.66;87.55;100293.91;5055809;28;20073;-59
2023/05/07 01:31:19;;;;;;;10.70;9.63;;;;;;;15.68;87.46;100285.94;5055149;28;20064;-59
2023/05/07 01:33:49;;;;;;;10.82;9.73;;;;;;;15.63;87.28;100281.41;5055283;28;20049;-60
2023/05/07 01:36:20;;;;;;;9.63;8.63;;;;;;;15.58;86.75;100281.63;5055724;28;20402;-59
2023/05/07 01:38:48;;;;;;;10.80;9.60;;;;;;;15.54;88.09;100283.50;5055581;28;20080;-59
2023/05/07 01:41:16;;;;;;;10.65;9.63;;;;;;;15.55;87.12;100285.16;5055618;28;20496;-59
2023/05/07 01:43:48;;;;;;;13.52;12.23;;;;;;;15.57;88.10;100285.63;5054801;28;20045;-59
2023/05/07 01:46:18;;;;;;;14.00;12.70;;;;;;;15.57;87.71;100285.63;5055421;28;20045;-59
2023/05/07 01:48:46;;;;;;;13.65;12.30;;;;;;;15.55;88.23;100288.78;5054549;28;20053;-59
2023/05/07 01:51:13;;;;;;;13.30;12.10;;;;;;;15.54;87.50;100292.75;5055496;28;20490;-59
2023/05/07 01:53:43;;;;;;;12.95;11.75;;;;;;;15.55;88.35;100287.97;5054812;28;20060;-60
2023/05/07 01:56:10;;;;;;;15.20;13.73;;;;;;;15.58;88.41;100292.84;5055355;28;20057;-60
2023/05/07 01:58:39;;;;;;;15.13;13.45;;;;;;;15.55;88.74;100287.97;5055219;28;20057;-60
2023/05/07 02:01:06;;;;;;;13.13;11.73;;;;;;;15.55;88.11;100285.16;5055275;28;20053;-60
2023/05/07 02:03:33;;;;;;;12.10;10.63;;;;;;;15.52;87.69;100288.69;5054917;28;20044;-60
2023/05/07 02:06:01;;;;;;;10.88;9.77;;;;;;;15.53;87.48;100295.91;5055063;28;20501;-60
2023/05/07 02:08:28;;;;;;;12.98;11.70;;;;;;;15.53;88.68;100295.91;5054956;28;20509;-60
2023/05/07 02:10:56;;;;;;;12.18;10.98;;;;;;;15.54;88.23;100289.13;5054291;28;20056;-60
2023/05/07 02:13:26;;;;;;;12.55;11.25;;;;;;;15.53;88.27;100290.31;5054768;28;20060;-60
2023/05/07 02:15:55;;;;;;;12.98;11.55;;;;;;;15.55;88.61;100282.34;5054310;28;20060;-60
2023/05/07 02:18:22;;;;;;;12.33;11.00;;;;;;;15.48;88.28;100287.75;5054352;28;20068;-60
2023/05/07 02:20:49;;;;;;;12.77;11.43;;;;;;;15.43;89.29;100284.00;5054587;28;20057;-60
2023/05/07 02:23:16;;;;;;;13.95;12.50;;;;;;;15.38;88.94;100281.41;5054623;28;20044;-60
2023/05/07 02:25:44;;;;;;;15.45;13.95;;;;;;;15.35;88.12;100284.94;5054658;28;20053;-60
2023/05/07 02:28:11;;;;;;;15.00;13.40;;;;;;;15.31;88.87;100286.00;5054374;28;20049;-60
2023/05/07 02:30:39;;;;;;;16.45;14.70;;;;;;;15.25;88.62;100285.41;5054392;28;20060;-60
2023/05/07 02:33:08;;;;;;;13.57;12.27;;;;;;;15.24;88.85;100289.38;5054393;28;20402;-60
2023/05/07 02:35:35;;;;;;;17.88;14.45;;;;;;;15.16;87.97;100285.53;5054473;28;20514;-59
2023/05/07 02:38:03;;;;;;;11.82;10.30;;;;;;;15.08;87.89;100280.03;5053724;28;20057;-59
2023/05/07 02:40:33;;;;;;;10.82;9.02;;;;;;;15.06;87.88;100280.38;5054196;28;20057;-59
2023/05/07 02:43:02;;;;;;;9.77;7.70;;;;;;;14.98;88.18;100276.50;5054108;28;20053;-60
2023/05/07 02:45:30;;;;;;;10.95;9.85;;;;;;;14.92;87.71;100277.09;5054670;28;20045;-59
2023/05/07 02:47:57;;;;;;;10.68;9.27;;;;;;;14.89;87.57;100277.78;5054465;28;20049;-60
2023/05/07 02:50:26;;;;;;;12.77;10.40;;;;;;;14.86;88.38;100278.47;5054337;28;20053;-60
2023/05/07 02:52:54;;;;;;;;;;;;;;;14.76;87.46;100279.75;5054403;28;20513;-60
2023/05/07 02:55:24;;;;;;;10.65;9.32;;;;;;;14.76;88.13;100276.94;5053961;28;20363;-60
2023/05/07 02:57:52;;;;;;;9.07;8.18;;;;;;;14.79;88.37;100273.44;5054639;28;20064;-61
2023/05/07 03:00:21;;;;;;;8.25;7.47;;;;;;;14.75;87.78;100275.31;5053115;28;20060;-61
2023/05/07 03:02:49;;;;;;;9.15;8.30;;;;;;;14.69;87.04;100268.28;5053713;28;20410;-61
2023/05/07 03:05:16;;;;;;;8.98;8.18;;;;;;;14.65;87.93;100261.72;5053571;28;20060;-61
2023/05/07 03:07:46;;;;;;;11.25;8.57;;;;;;;14.61;87.59;100265.25;5053570;28;20061;-61
2023/05/07 03:10:13;;;;;;;9.07;7.22;;;;;;;14.60;88.32;100274.00;5053627;28;20056;-61
2023/05/07 03:12:40;;;;;;;10.18;8.38;;;;;;;14.59;88.94;100270.38;5053970;28;20060;-60
2023/05/07 03:15:08;;;;;;;14.32;12.68;;;;;;;14.57;88.59;100272.72;5053352;28;20061;-61
2023/05/07 03:17:39;;;;;;;14.07;12.55;;;;;;;14.58;87.74;100274.34;5053343;28;20053;-60
2023/05/07 03:20:09;;;;;;;16.83;15.13;;;;;;;14.52;89.24;100270.06;5053451;28;20057;-61
2023/05/07 03:22:36;;;;;;;16.92;15.13;;;;;;;14.54;88.83;100273.34;5053580;28;20064;-60
2023/05/07 03:25:09;;;;;;;13.38;11.98;;;;;;;14.54;89.38;100278.97;5053170;28;20053;-61
2023/05/07 03:27:36;;;;;;;10.18;9.18;;;;;;;14.55;88.99;100274.16;5053266;28;20049;-61
2023/05/07 03:30:03;;;;;;;9.40;8.45;;;;;;;14.55;89.22;100277.84;5053487;28;20083;-61
2023/05/07 03:32:31;;;;;;;8.23;7.43;;;;;;;14.52;88.20;100272.88;5053411;28;20072;-62
2023/05/07 03:34:58;;;;;;;9.35;8.30;;;;;;;14.50;88.56;100272.41;5053416;28;20406;-61
2023/05/07 03:37:25;;;;;;;9.00;8.10;;;;;;;14.47;87.67;100264.72;5053285;28;20403;-61
2023/05/07 03:39:52;;;;;;;10.30;9.00;;;;;;;14.47;87.70;100275.06;5053220;28;20053;-61
2023/05/07 03:42:21;;;;;;;9.55;8.55;;;;;;;14.45;88.88;100269.00;5053287;28;20410;-61
2023/05/07 03:44:48;;;;;;;11.88;9.77;;;;;;;14.46;87.84;100274.25;5052881;28;20056;-61
2023/05/07 03:47:16;;;;;;;10.80;9.77;;;;;;;14.53;89.33;100276.50;5053228;28;20418;-61
2023/05/07 03:49:43;;;;;;;10.50;9.40;;;;;;;14.54;89.31;100272.53;5053054;28;20057;-61
2023/05/07 03:52:10;;;;;;;11.85;10.20;;;;;;;14.60;89.36;100288.00;5052762;28;20057;-61
2023/05/07 03:54:37;;;;;;;12.52;11.35;;;;;;;14.62;88.32;100280.06;5053034;28;20497;-61
2023/05/07 03:57:05;;;;;;;10.93;9.57;;;;;;;14.66;89.65;100291.38;5052518;28;20136;-61
2023/05/07 03:59:33;;;;;;;13.50;11.10;;;;;;;14.65;88.13;100289.75;5052800;28;20410;-61
2023/05/07 04:02:00;;;;;;;9.63;8.70;;;;;;;14.63;89.36;100295.72;5052749;28;20056;-61
2023/05/07 04:04:32;;;;;;;9.88;8.98;;;;;;;14.67;88.69;100290.25;5052840;28;20829;-61
2023/05/07 04:07:00;;;;;;;12.60;8.95;;;;;;;14.69;88.18;100293.50;5053073;28;20049;-61
2023/05/07 04:09:27;;;;;;;7.40;6.70;;;;;;;14.68;87.68;100297.47;5052479;28;20064;-61
2023/05/07 04:11:54;;;;;;;9.30;8.43;;;;;;;14.69;87.93;100297.13;5052592;28;20064;-61
2023/05/07 04:14:22;;;;;;;8.65;7.75;;;;;;;14.69;87.74;100296.31;5052439;28;20060;-61
2023/05/07 04:16:50;;;;;;;9.80;8.90;;;;;;;14.71;87.57;100294.81;5052803;28;20409;-61
2023/05/07 04:19:17;;;;;;;10.63;9.63;;;;;;;14.73;88.52;100298.06;5053137;28;20049;-61
2023/05/07 04:21:45;;;;;;;8.85;7.90;;;;;;;14.78;87.44;100302.63;5052809;28;20056;-61
2023/05/07 04:24:12;;;;;;;9.30;8.40;;;;;;;14.81;88.29;100305.56;5052886;28;20060;-61
2023/05/07 04:26:42;;;;;;;8.15;6.70;;;;;;;14.85;87.83;100300.09;5053457;28;20339;-61
2023/05/07 04:29:09;;;;;;;11.60;8.98;;;;;;;14.85;87.93;100299.28;5053545;28;20064;-59
2023/05/07 04:31:36;;;;;;;7.38;6.55;;;;;;;14.89;87.51;100295.44;5053207;28;20056;-60
2023/05/07 04:34:05;;;;;;;8.50;7.53;;;;;;;14.89;86.44;100298.25;5053283;28;20060;-61
2023/05/07 04:36:33;;;;;;;10.98;9.88;;;;;;;14.82;86.70;100300.78;5052537;28;20045;-61
2023/05/07 04:39:01;;;;;;;11.20;10.20;;;;;;;14.89;86.86;100303.00;5054146;28;20060;-59
2023/05/07 04:41:28;;;;;;;8.57;7.78;;;;;;;14.89;86.42;100294.59;5052356;28;20057;-59
2023/05/07 04:43:56;;;;;;;8.57;7.65;;;;;;;14.97;86.31;100302.94;5052338;28;20049;-59
2023/05/07 04:46:24;;;;;;;9.15;7.65;;;;;;;15.00;86.38;100307.81;5053152;28;20060;-58
2023/05/07 04:48:57;;;;;;;8.52;7.45;;;;;;;15.07;86.56;100300.81;5058630;28;20049;-60
2023/05/07 04:51:26;;;;;;;12.07;9.30;;;;;;;15.11;86.21;100307.38;5059660;28;20470;-59
2023/05/07 04:53:53;;;;;;;6.75;6.05;;;;;;;15.18;86.02;100308.44;5053364;28;20057;-63
2023/05/07 04:56:20;;;;;;;10.70;9.50;;;;;;;15.23;86.16;100315.81;5052105;28;20061;-61
2023/05/07 04:58:47;;;;;;;13.57;7.78;;;;;;;15.31;85.93;100312.06;5052291;28;20060;-61
2023/05/07 05:01:15;;;;;;;9.32;8.07;;;;;;;15.38;86.32;100315.09;5052173;28;20506;-60
2023/05/07 05:03:42;;;;;;;9.48;8.52;;;;;;;15.47;86.19;100320.59;5052266;28;20049;-61
2023/05/07 05:06:09;;;;;;;8.90;7.20;;;;;;;15.53;85.08;100319.19;5051804;28;20477;-60
2023/05/07 05:08:38;;;;;;;8.95;8.07;;;;;;;15.65;84.89;100315.56;5052080;28;20079;-60
2023/05/07 05:11:05;;;;;;;7.72;6.18;;;;;;;15.75;85.28;100315.13;5051715;28;20079;-61
2023/05/07 05:13:33;;;;;;;8.70;7.90;;;;;;;15.90;84.49;100313.56;5051999;28;20057;-60
2023/05/07 05:16:00;;;;;;;7.90;7.10;;;;;;;16.01;84.69;100305.47;5051847;28;20490;-59
2023/05/07 05:18:27;;;;;;;7.40;6.70;;;;;;;16.11;84.29;100316.19;5052146;28;20427;-60
2023/05/07 05:21:01;;;;;;;10.13;9.13;;;;;;;16.19;84.24;100312.44;5051876;28;20085;-61
2023/05/07 05:23:28;;;;;;;9.30;8.20;;;;;;;16.33;84.06;100312.00;5052067;28;20056;-60
2023/05/07 05:25:58;;;;;;;9.88;7.00;;;;;;;16.45;82.95;100313.97;5058456;28;20067;-60
2023/05/07 05:28:25;;;;;;;8.23;7.38;;;;;;;16.54;82.95;100313.81;5054991;28;20064;-60
2023/05/07 05:30:53;;;;;;;11.25;8.65;;;;;;;16.69;83.21;100312.19;5055411;28;20052;-60
2023/05/07 05:33:20;;;;;;;7.60;6.90;;;;;;;16.84;83.10;100320.72;5055579;28;20064;-60
2023/05/07 05:35:54;;;;;;;8.82;7.95;;;;;;;16.96;82.70;100304.91;5060393;28;20060;-59
2023/05/07 05:38:21;;;;;;;8.45;7.55;;;;;;;17.04;82.65;100313.19;5054591;28;20048;-60
2023/05/07 05:40:49;;;;;;;8.05;6.75;;;;;;;17.14;81.93;100316.66;5055028;28;20052;-60
2023/05/07 05:43:17;;;;;;;8.73;7.90;;;;;;;17.24;80.78;100314.09;5055446;28;20056;-60
2023/05/07 05:45:45;;;;;;;11.80;8.27;;;;;;;17.30;81.26;100322.25;5054911;28;20049;-60
2023/05/07 05:48:12;;;;;;;10.25;8.52;;;;;;;17.45;81.26;100322.25;5055219;28;20057;-60
2023/05/07 05:50:39;;;;;;;8.57;6.85;;;;;;;17.53;80.47;100323.25;5055990;28;20060;-60
2023/05/07 05:53:15;;;;;;;9.75;7.68;;;;;;;17.65;80.10;100323.13;5056644;28;20045;-59
2023/05/07 05:55:43;;;;;;;7.78;7.05;;;;;;;17.71;79.76;100328.50;5053361;28;20060;-60
2023/05/07 05:58:11;;;;;;;7.53;6.72;;;;;;;17.85;79.55;100335.31;5054961;28;20049;-60
2023/05/07 06:00:39;;;;;;;8.93;8.02;;;;;;;17.96;79.91;100332.72;5054637;28;20059;-60
2023/05/07 06:03:07;;;;;;;9.93;8.73;;;;;;;18.07;79.18;100338.59;5054285;28;20048;-60
2023/05/07 06:05:34;;;;;;;7.70;7.00;;;;;;;18.26;79.20;100340.63;5054695;28;20506;-60
2023/05/07 06:08:01;;;;;;;7.50;6.80;;;;;;;18.48;79.57;100330.63;5054799;28;20057;-59
2023/05/07 06:10:30;;;;;;;8.65;7.75;;;;;;;18.64;79.33;100333.34;5054118;28;20053;-58
2023/05/07 06:12:57;;;;;;;7.83;6.33;;;;;;;18.85;78.36;100330.97;5054730;28;20052;-58
2023/05/07 06:15:24;;;;;;;6.43;5.82;;;;;;;19.01;78.43;100328.03;5054211;28;20049;-59
2023/05/07 06:17:53;;;;;;;7.28;6.57;;;;;;;19.21;77.38;100328.81;5054518;28;20053;-59
2023/05/07 06:20:20;;;;;;;7.70;6.83;;;;;;;19.43;77.27;100337.63;5054166;28;20056;-60
2023/05/07 06:22:47;;;;;;;6.28;5.35;;;;;;;19.63;76.11;100342.00;5054360;28;20056;-59
2023/05/07 06:25:14;;;;;;;6.60;5.38;;;;;;;19.64;74.80;100342.81;5054257;28;20053;-59
2023/05/07 06:27:42;;;;;;;5.22;4.72;;;;;;;19.77;73.80;100346.28;5054621;28;20140;-59
2023/05/07 06:30:09;;;;;;;8.25;5.00;;;;;;;20.06;74.90;100345.50;5054125;28;20057;-60
2023/05/07 06:32:37;;;;;;;6.32;5.68;;;;;;;20.28;75.24;100340.97;5053594;28;20490;-60
2023/05/07 06:35:06;;;;;;;5.50;4.90;;;;;;;20.43;73.86;100333.47;5053691;28;20053;-59
2023/05/07 06:37:34;;;;;;;5.05;4.55;;;;;;;20.64;73.74;100346.25;5054349;28;20071;-59
2023/05/07 06:40:01;;;;;;;5.97;4.30;;;;;;;20.86;73.19;100338.84;5053716;28;20531;-61
2023/05/07 06:42:28;;;;;;;5.28;4.07;;;;;;;21.13;73.51;100348.00;5053920;28;20068;-59
2023/05/07 06:44:55;;;;;;;6.53;3.38;;;;;;;21.05;69.78;100347.13;5053633;28;20064;-60
2023/05/07 06:47:23;;;;;;;5.43;3.80;;;;;;;21.15;70.01;100339.13;5054071;28;20394;-58
2023/05/07 06:49:50;;;;;;;6.35;3.70;;;;;;;21.22;70.37;100345.66;5053683;28;20064;-59
2023/05/07 06:52:18;;;;;;;4.35;3.13;;;;;;;21.49;70.70;100346.34;5053988;28;20058;-60
2023/05/07 06:54:46;;;;;;;5.43;3.35;;;;;;;21.61;69.61;100350.09;5053971;28;20498;-59
2023/05/07 06:57:13;;;;;;;5.10;3.40;;;;;;;21.74;69.09;100348.56;5054152;28;20053;-59
2023/05/07 06:59:40;;;;;;;5.55;3.30;;;;;;;21.79;69.27;100350.22;5054080;28;20057;-60
2023/05/07 07:02:08;;;;;;;3.65;2.58;;;;;;;21.87;69.08;100352.69;5053644;28;20401;-58
2023/05/07 07:04:35;;;;;;;4.60;3.00;;;;;;;21.99;67.87;100345.09;5053402;28;20059;-58
2023/05/07 07:07:03;;;;;;;4.13;2.88;;;;;;;22.11;68.44;100356.06;5053528;28;20060;-58
2023/05/07 07:09:32;;;;;;;4.75;2.70;;;;;;;22.16;68.76;100347.22;5053585;28;20071;-59
2023/05/07 07:11:59;;;;;;;3.63;2.40;;;;;;;22.26;68.26;100348.53;5053156;28;20052;-58
2023/05/07 07:14:26;;;;;;;4.65;2.83;;;;;;;22.29;68.08;100348.50;5053224;28;20409;-59
2023/05/07 07:16:54;;;;;;;2.88;2.60;;;;;;;22.40;67.46;100350.59;5053635;28;20071;-60
2023/05/07 07:19:23;;;;;;;4.45;3.15;;;;;;;22.48;67.83;100358.75;5053659;28;20434;-59
2023/05/07 07:21:50;;;;;;;4.45;2.83;;;;;;;22.44;67.56;100346.56;5053397;28;20064;-60
2023/05/07 07:24:20;;;;;;;4.68;2.70;;;;;;;22.50;67.14;100344.16;5053121;28;20064;-59
2023/05/07 07:26:49;;;;;;;8.10;2.70;;;;;;;22.52;66.73;100344.56;5052983;28;20052;-59
2023/05/07 07:29:18;;;;;;;3.88;2.70;;;;;;;22.70;66.59;100348.28;5054286;28;20049;-59
2023/05/07 07:31:45;;;;;;;3.47;2.50;;;;;;;22.75;65.67;100347.09;5053352;28;20056;-59
2023/05/07 07:34:12;;;;;;;3.10;2.80;;;;;;;23.07;66.76;100347.19;5052921;28;20445;-59
2023/05/07 07:36:40;;;;;;;5.65;2.97;;;;;;;23.19;66.27;100346.00;5053005;28;20048;-59
2023/05/07 07:39:07;;;;;;;2.90;2.40;;;;;;;23.34;65.26;100341.13;5052836;28;20076;-58
2023/05/07 07:41:35;;;;;;;3.42;2.67;;;;;;;23.43;65.66;100352.09;5053054;28;20049;-59
2023/05/07 07:44:07;;;;;;;4.88;2.67;;;;;;;23.63;65.17;100353.31;5053142;28;20075;-59
2023/05/07 07:46:34;;;;;;;3.75;2.40;;;;;;;23.71;65.69;100356.97;5052614;28;20053;-59
2023/05/07 07:49:01;;;;;;;7.60;3.05;;;;;;;23.78;65.45;100359.03;5052657;28;20057;-59
2023/05/07 07:51:29;;;;;;;4.40;2.83;;;;;;;23.74;65.00;100358.19;5052628;28;20064;-59
2023/05/07 07:53:57;;;;;;;3.72;2.42;;;;;;;23.73;64.95;100356.56;5052863;28;20064;-59
2023/05/07 07:56:25;;;;;;;3.78;2.83;;;;;;;23.80;64.85;100348.88;5052658;28;20049;-59
2023/05/07 07:58:52;;;;;;;5.18;2.63;;;;;;;23.89;65.53;100343.56;5052840;28;20056;-59
2023/05/07 08:01:30;;;;;;;4.85;2.42;;;;;;;23.94;65.12;100344.38;5052691;28;20056;-58
2023/05/07 08:03:58;;;;;;;4.10;2.53;;;;;;;23.90;62.16;100345.19;5052931;28;20532;-58
2023/05/07 08:06:26;;;;;;;3.50;2.65;;;;;;;23.95;63.79;100346.81;5052477;28;20049;-59
2023/05/07 08:08:53;;;;;;;3.17;2.35;;;;;;;24.16;63.89;100342.28;5052806;28;20049;-58
2023/05/07 08:11:21;;;;;;;3.47;2.17;;;;;;;24.19;62.46;100350.81;5052130;28;20057;-59
2023/05/07 08:13:48;;;;;;;3.10;2.17;;;;;;;24.34;60.13;100356.44;5052302;28;20060;-59
2023/05/07 08:16:15;;;;;;;4.22;2.35;;;;;;;24.40;62.10;100355.63;5052019;28;20496;-59
2023/05/07 08:18:44;;;;;;;3.40;2.20;;;;;;;24.67;61.24;100364.50;5052601;28;20478;-59
2023/05/07 08:21:12;;;;;;;2.55;2.15;;;;;;;24.81;60.79;100354.25;5052066;28;20071;-59
2023/05/07 08:23:39;;;;;;;3.50;2.28;;;;;;;24.66;61.07;100357.19;5052672;28;20057;-59
2023/05/07 08:26:06;;;;;;;3.13;2.13;;;;;;;24.68;62.24;100357.56;5051934;28;20049;-58
2023/05/07 08:28:33;;;;;;;2.90;2.17;;;;;;;24.79;62.75;100353.88;5052438;28;20516;-59
2023/05/07 08:31:01;;;;;;;2.90;2.28;;;;;;;24.83;61.97;100351.81;5052202;28;20060;-59
2023/05/07 08:33:28;;;;;;;3.35;2.40;;;;;;;25.08;62.62;100360.22;5052391;28;20478;-59
2023/05/07 08:36:02;;;;;;;4.45;2.63;;;;;;;25.40;60.94;100365.72;5052996;28;20053;-59
2023/05/07 08:38:30;;;;;;;3.65;2.75;;;;;;;25.61;60.12;100372.47;5055003;28;20056;-59
2023/05/07 08:40:57;;;;;;;3.90;2.45;;;;;;;26.05;59.69;100359.47;5052020;28;20060;-59
2023/05/07 08:43:28;;;;;;;3.60;2.40;;;;;;;26.38;56.09;100365.63;5051853;28;20049;-59
2023/05/07 08:45:56;;;;;;;2.67;2.45;;;;;;;26.88;55.94;100359.31;5051880;28;20048;-59
2023/05/07 08:48:27;;;;;;;3.43;2.27;;;;;;;27.97;55.60;100365.78;5053186;28;20048;-58
2023/05/07 08:50:54;;;;;;;3.85;2.63;;;;;;;29.03;52.96;100358.28;5051966;28;20382;-58
2023/05/07 08:53:23;;;;;;;3.42;2.30;;;;;;;30.16;51.48;100360.84;5052667;28;20060;-57
2023/05/07 08:55:50;;;;;;;3.13;2.17;;;;;;;31.06;51.22;100364.03;5051915;28;20045;-58
2023/05/07 08:58:18;;;;;;;6.35;2.35;;;;;;;31.68;48.17;100364.44;5053090;28;20053;-59
2023/05/07 09:00:45;;;;;;;5.72;2.33;;;;;;;32.70;44.75;100362.50;5055797;28;20060;-59
2023/05/07 09:03:12;;;;;;;3.22;2.20;;;;;;;33.86;46.07;100351.63;5056251;28;20421;-59
2023/05/07 09:05:39;;;;;;;2.20;1.73;;;;;;;34.50;44.32;100355.81;5056085;28;20155;-59
2023/05/07 09:08:08;;;;;;;2.38;1.83;;;;;;;34.92;40.90;100347.25;5056024;28;20044;-59
2023/05/07 09:10:36;;;;;;;2.47;1.80;;;;;;;35.00;43.37;100353.47;5055816;28;20138;-58
2023/05/07 09:13:03;;;;;;;;;;;;;;;34.47;39.33;100353.91;5056655;28;20045;-58
2023/05/07 09:15:30;;;;;;;2.63;1.75;;;;;;;34.16;43.88;100349.09;5055276;28;20365;-59
2023/05/07 09:18:01;;;;;;;3.38;1.90;;;;;;;33.79;43.74;100340.38;5056017;28;20049;-58
2023/05/07 09:20:31;;;;;;;2.88;2.13;;;;;;;33.84;41.75;100339.72;5055430;28;20053;-57
2023/05/07 09:22:58;;;;;;;4.38;2.00;;;;;;;33.95;42.11;100342.94;5055749;28;20060;-58
2023/05/07 09:25:29;;;;;;;3.47;1.90;;;;;;;34.20;40.72;100343.94;5055344;28;20056;-57
2023/05/07 09:27:58;;;;;;;2.42;1.83;;;;;;;34.01;41.76;100348.91;5056718;28;20059;-58
2023/05/07 09:30:29;;;;;;;4.00;2.20;;;;;;;34.61;40.78;100344.56;5055558;28;20064;-58
2023/05/07 09:32:56;;;;;;;2.78;1.90;;;;;;;35.41;41.83;100341.59;5055647;28;20060;-58
2023/05/07 09:35:27;;;;;;;2.13;1.70;;;;;;;36.87;39.45;100340.94;5055436;28;20487;-58
2023/05/07 09:37:54;;;;;;;2.83;1.70;;;;;;;37.51;34.83;100339.34;5055486;28;20509;-58
2023/05/07 09:40:23;;;;;;;3.22;1.58;;;;;;;36.72;36.52;100344.63;5055385;28;20479;-58
2023/05/07 09:42:51;;;;;;;2.60;1.60;;;;;;;36.72;35.69;100350.44;5055426;28;20045;-58
2023/05/07 09:45:24;;;;;;;7.40;2.15;;;;;;;37.92;30.92;100343.06;5055587;28;20408;-58
2023/05/07 09:47:55;;;;;;;2.80;1.40;;;;;;;39.64;33.14;100339.19;5055168;28;20060;-58
2023/05/07 09:50:25;;;;;;;2.35;1.40;;;;;;;39.03;27.75;100338.22;5055219;28;20057;-59
2023/05/07 09:52:53;;;;;;;2.50;1.20;;;;;;;39.72;26.91;100340.31;5055256;28;20057;-59
2023/05/07 09:55:21;;;;;;;2.22;1.00;;;;;;;39.92;24.37;100346.00;5054840;28;20068;-59
2023/05/07 09:57:51;;;;;;;3.08;1.08;;;;;;;40.80;27.68;100332.72;5055097;28;20052;-59
2023/05/07 10:00:21;;;;;;;2.03;1.42;;;;;;;42.28;25.97;100340.66;5055105;28;20409;-58
2023/05/07 10:02:52;;;;;;;1.63;1.20;;;;;;;43.22;22.58;100333.84;5054902;28;20501;-58
2023/05/07 10:05:19;;;;;;;2.13;1.10;;;;;;;43.23;23.55;100335.44;5054573;28;20060;-59
2023/05/07 10:07:48;;;;;;;2.30;1.52;;;;;;;42.72;23.29;100338.78;5054989;28;20053;-59
2023/05/07 10:10:15;;;;;;;2.75;1.30;;;;;;;42.37;21.43;100338.19;5054319;28;20415;-58
2023/05/07 10:12:43;;;;;;;2.00;1.42;;;;;;;42.11;22.09;100337.81;5054902;28;20402;-58
2023/05/07 10:15:12;;;;;;;3.60;2.00;;;;;;;41.82;22.88;100334.19;5054385;28;20060;-58
2023/05/07 10:17:40;;;;;;;4.85;2.00;;;;;;;41.60;23.02;100345.97;5054504;28;20052;-59
2023/05/07 10:20:10;;;;;;;3.35;2.60;;;;;;;41.29;22.68;100339.09;5054121;28;20059;-59
2023/05/07 10:22:42;;;;;;;4.00;2.60;;;;;;;41.91;21.64;100339.72;5054295;28;20052;-59
2023/05/07 10:25:17;;;;;;;3.40;3.10;;;;;;;43.34;20.68;100333.19;5054353;28;20052;-59
2023/05/07 10:27:47;;;;;;;3.47;3.00;;;;;;;43.31;20.96;100324.72;5055437;28;20402;-59
2023/05/07 10:30:30;;;;;;;3.50;3.20;;;;;;;41.07;21.76;100336.97;5053861;28;20048;-59
2023/05/07 10:33:05;;;;;;;3.22;2.92;;;;;;;39.10;23.39;100334.84;5054329;28;20064;-59
2023/05/07 10:35:45;;;;;;;4.25;2.55;;;;;;;38.05;24.23;100336.13;5054222;28;20052;-59
2023/05/07 10:38:13;;;;;;;5.20;3.17;;;;;;;37.06;25.36;100347.31;5054222;28;20069;-59
2023/05/07 10:40:41;;;;;;;3.55;2.72;;;;;;;36.43;25.99;100344.59;5053942;28;20150;-59
2023/05/07 10:43:08;;;;;;;5.00;3.30;;;;;;;35.80;26.99;100353.28;5054396;28;20049;-59
2023/05/07 10:45:35;;;;;;;4.75;3.92;;;;;;;35.43;26.92;100356.41;5054222;28;20409;-59
2023/05/07 10:48:10;;;;;;;4.25;3.83;;;;;;;35.25;27.47;100354.38;5054272;28;20049;-58
2023/05/07 10:50:40;;;;;;;5.22;4.32;;;;;;;34.82;27.78;100357.25;5054260;28;20052;-59
2023/05/07 10:53:28;;;;;;;5.07;4.22;;;;;;;34.99;28.61;100356.88;5054187;28;20049;-59
2023/05/07 10:56:27;;;;;;;5.95;5.35;;;;;;;35.04;28.79;100356.19;5053852;28;20056;-59
2023/05/07 10:59:41;;;;;;;5.85;5.35;;;;;;;35.30;27.61;100342.13;5056306;28;20060;-58
2023/05/07 11:02:10;;;;;;;6.40;4.32;;;;;;;35.56;28.13;100343.25;5053769;28;20068;-58
2023/05/07 11:04:40;;;;;;;7.15;5.05;;;;;;;35.22;27.42;100349.59;5054699;28;20052;-59
2023/05/07 11:07:31;;;;;;;4.80;4.00;;;;;;;34.15;29.01;100351.19;5053773;28;20053;-59
2023/05/07 11:10:06;;;;;;;5.28;4.53;;;;;;;33.72;30.06;100338.56;5053567;28;20478;-59
2023/05/07 11:12:53;;;;;;;5.18;4.60;;;;;;;33.28;30.11;100343.72;5054218;28;20063;-59
2023/05/07 11:15:38;;;;;;;5.90;4.97;;;;;;;33.06;30.71;100349.56;5053177;28;20072;-59
2023/05/07 11:18:07;;;;;;;8.23;5.03;;;;;;;32.61;31.27;100340.16;5053105;28;20071;-59
2023/05/07 11:21:00;;;;;;;;;;;;;;;32.33;31.90;100339.94;5053722;28;20060;-59
2023/05/07 11:23:55;;;;;;;5.15;4.65;;;;;;;32.05;32.31;100349.66;5028894;28;19928;-59
2023/05/07 11:26:23;;;;;;;6.03;5.10;;;;;;;31.63;33.05;100344.09;5053283;28;20386;-59
2023/05/07 11:28:51;;;;;;;5.18;4.65;;;;;;;31.37;33.32;100341.19;5053669;28;20049;-59